sensor_id;sensor_type;location;lat;lon;timestamp;P1;durP1;ratioP1;P2;durP2;ratioP2
74833;SDS011;63361;52.384;20.930;2023-12-20T00:00:57;21.43;;;11.90;;
74833;SDS011;63361;52.384;20.930;2023-12-20T00:03:23;22.70;;;11.73;;
74833;SDS011;63361;52.384;20.930;2023-12-20T00:05:49;21.38;;;10.98;;
74833;SDS011;63361;52.384;20.930;2023-12-20T00:08:14;20.23;;;10.83;;
74833;SDS011;63361;52.384;20.930;2023-12-20T00:10:40;23.05;;;11.48;;
74833;SDS011;63361;52.384;20.930;2023-12-20T00:13:05;19.47;;;10.47;;
74833;SDS011;63361;52.384;20.930;2023-12-20T00:15:32;22.40;;;11.70;;
74833;SDS011;63361;52.384;20.930;2023-12-20T00:17:58;20.00;;;10.48;;
74833;SDS011;63361;52.384;20.930;2023-12-20T00:20:24;19.33;;;10.77;;
74833;SDS011;63361;52.384;20.930;2023-12-20T00:22:49;19.83;;;10.83;;
74833;SDS011;63361;52.384;20.930;2023-12-20T00:25:14;19.83;;;10.97;;
74833;SDS011;63361;52.384;20.930;2023-12-20T00:27:40;20.13;;;10.97;;
74833;SDS011;63361;52.384;20.930;2023-12-20T00:30:05;24.30;;;10.23;;
74833;SDS011;63361;52.384;20.930;2023-12-20T00:32:31;23.00;;;11.85;;
74833;SDS011;63361;52.384;20.930;2023-12-20T00:34:56;18.70;;;10.03;;
74833;SDS011;63361;52.384;20.930;2023-12-20T00:37:21;16.10;;;10.07;;
74833;SDS011;63361;52.384;20.930;2023-12-20T00:39:47;22.00;;;11.10;;
74833;SDS011;63361;52.384;20.930;2023-12-20T00:42:13;20.45;;;10.48;;
74833;SDS011;63361;52.384;20.930;2023-12-20T00:44:38;19.27;;;10.47;;
74833;SDS011;63361;52.384;20.930;2023-12-20T00:47:03;16.57;;;9.40;;
74833;SDS011;63361;52.384;20.930;2023-12-20T00:49:29;20.52;;;10.85;;
74833;SDS011;63361;52.384;20.930;2023-12-20T00:51:54;19.07;;;10.50;;
74833;SDS011;63361;52.384;20.930;2023-12-20T00:54:19;17.47;;;9.63;;
74833;SDS011;63361;52.384;20.930;2023-12-20T00:56:45;19.40;;;11.03;;
74833;SDS011;63361;52.384;20.930;2023-12-20T00:59:10;21.30;;;9.73;;
74833;SDS011;63361;52.384;20.930;2023-12-20T01:01:35;15.13;;;8.70;;
74833;SDS011;63361;52.384;20.930;2023-12-20T01:04:01;19.23;;;9.97;;
74833;SDS011;63361;52.384;20.930;2023-12-20T01:06:26;20.35;;;9.65;;
74833;SDS011;63361;52.384;20.930;2023-12-20T01:08:51;15.93;;;8.97;;
74833;SDS011;63361;52.384;20.930;2023-12-20T01:11:17;17.43;;;9.67;;
74833;SDS011;63361;52.384;20.930;2023-12-20T01:13:42;18.27;;;9.33;;
74833;SDS011;63361;52.384;20.930;2023-12-20T01:16:09;18.67;;;9.07;;
74833;SDS011;63361;52.384;20.930;2023-12-20T01:18:35;23.13;;;10.38;;
74833;SDS011;63361;52.384;20.930;2023-12-20T01:21:01;20.83;;;9.70;;
74833;SDS011;63361;52.384;20.930;2023-12-20T01:23:28;25.60;;;9.77;;
74833;SDS011;63361;52.384;20.930;2023-12-20T01:25:53;22.60;;;9.63;;
74833;SDS011;63361;52.384;20.930;2023-12-20T01:28:19;20.43;;;10.20;;
74833;SDS011;63361;52.384;20.930;2023-12-20T01:30:44;23.03;;;11.07;;
74833;SDS011;63361;52.384;20.930;2023-12-20T01:33:09;21.17;;;10.00;;
74833;SDS011;63361;52.384;20.930;2023-12-20T01:35:34;28.93;;;10.40;;
74833;SDS011;63361;52.384;20.930;2023-12-20T01:38:00;19.70;;;10.20;;
74833;SDS011;63361;52.384;20.930;2023-12-20T01:40:25;25.50;;;9.77;;
74833;SDS011;63361;52.384;20.930;2023-12-20T01:43:00;19.17;;;10.60;;
74833;SDS011;63361;52.384;20.930;2023-12-20T01:45:27;25.65;;;10.50;;
74833;SDS011;63361;52.384;20.930;2023-12-20T01:47:53;20.03;;;11.27;;
74833;SDS011;63361;52.384;20.930;2023-12-20T01:50:19;24.10;;;11.40;;
74833;SDS011;63361;52.384;20.930;2023-12-20T01:52:46;18.17;;;10.00;;
74833;SDS011;63361;52.384;20.930;2023-12-20T01:55:11;21.80;;;10.97;;
74833;SDS011;63361;52.384;20.930;2023-12-20T01:57:40;21.75;;;9.50;;
74833;SDS011;63361;52.384;20.930;2023-12-20T02:00:06;23.57;;;10.50;;
74833;SDS011;63361;52.384;20.930;2023-12-20T02:02:34;20.45;;;10.02;;
74833;SDS011;63361;52.384;20.930;2023-12-20T02:05:02;20.25;;;11.18;;
74833;SDS011;63361;52.384;20.930;2023-12-20T02:07:28;40.15;;;10.45;;
74833;SDS011;63361;52.384;20.930;2023-12-20T02:09:55;24.27;;;10.10;;
74833;SDS011;63361;52.384;20.930;2023-12-20T02:12:21;18.57;;;10.10;;
74833;SDS011;63361;52.384;20.930;2023-12-20T02:14:47;20.63;;;10.70;;
74833;SDS011;63361;52.384;20.930;2023-12-20T02:17:12;20.43;;;9.30;;
74833;SDS011;63361;52.384;20.930;2023-12-20T02:19:37;21.23;;;10.55;;
74833;SDS011;63361;52.384;20.930;2023-12-20T02:22:06;20.37;;;10.33;;
74833;SDS011;63361;52.384;20.930;2023-12-20T02:24:38;21.98;;;10.43;;
74833;SDS011;63361;52.384;20.930;2023-12-20T02:27:04;19.80;;;9.60;;
74833;SDS011;63361;52.384;20.930;2023-12-20T02:29:32;21.58;;;9.65;;
74833;SDS011;63361;52.384;20.930;2023-12-20T02:32:00;26.13;;;10.50;;
74833;SDS011;63361;52.384;20.930;2023-12-20T02:34:26;18.53;;;9.97;;
74833;SDS011;63361;52.384;20.930;2023-12-20T02:36:51;23.00;;;9.97;;
74833;SDS011;63361;52.384;20.930;2023-12-20T02:39:17;18.90;;;9.27;;
74833;SDS011;63361;52.384;20.930;2023-12-20T02:41:44;22.05;;;9.85;;
74833;SDS011;63361;52.384;20.930;2023-12-20T02:44:09;20.30;;;9.83;;
74833;SDS011;63361;52.384;20.930;2023-12-20T02:46:34;23.07;;;10.37;;
74833;SDS011;63361;52.384;20.930;2023-12-20T02:49:00;21.67;;;9.68;;
74833;SDS011;63361;52.384;20.930;2023-12-20T02:51:25;20.23;;;10.00;;
74833;SDS011;63361;52.384;20.930;2023-12-20T02:53:50;17.50;;;9.20;;
74833;SDS011;63361;52.384;20.930;2023-12-20T02:56:16;18.03;;;10.17;;
74833;SDS011;63361;52.384;20.930;2023-12-20T02:58:41;19.03;;;10.83;;
74833;SDS011;63361;52.384;20.930;2023-12-20T03:01:06;19.13;;;10.27;;
74833;SDS011;63361;52.384;20.930;2023-12-20T03:03:32;20.90;;;10.43;;
74833;SDS011;63361;52.384;20.930;2023-12-20T03:05:57;20.85;;;10.13;;
74833;SDS011;63361;52.384;20.930;2023-12-20T03:08:23;22.17;;;10.17;;
74833;SDS011;63361;52.384;20.930;2023-12-20T03:10:48;21.37;;;9.80;;
74833;SDS011;63361;52.384;20.930;2023-12-20T03:13:13;22.30;;;10.60;;
74833;SDS011;63361;52.384;20.930;2023-12-20T03:15:39;21.15;;;10.05;;
74833;SDS011;63361;52.384;20.930;2023-12-20T03:18:04;20.57;;;10.80;;
74833;SDS011;63361;52.384;20.930;2023-12-20T03:20:30;22.00;;;10.70;;
74833;SDS011;63361;52.384;20.930;2023-12-20T03:22:59;19.90;;;9.93;;
74833;SDS011;63361;52.384;20.930;2023-12-20T03:25:24;18.47;;;9.83;;
74833;SDS011;63361;52.384;20.930;2023-12-20T03:27:49;18.77;;;9.10;;
74833;SDS011;63361;52.384;20.930;2023-12-20T03:30:14;17.20;;;8.87;;
74833;SDS011;63361;52.384;20.930;2023-12-20T03:32:40;15.40;;;7.93;;
74833;SDS011;63361;52.384;20.930;2023-12-20T03:35:05;16.50;;;8.47;;
74833;SDS011;63361;52.384;20.930;2023-12-20T03:37:31;18.70;;;9.18;;
74833;SDS011;63361;52.384;20.930;2023-12-20T03:39:56;16.77;;;8.30;;
74833;SDS011;63361;52.384;20.930;2023-12-20T03:42:21;20.27;;;9.17;;
74833;SDS011;63361;52.384;20.930;2023-12-20T03:44:47;19.43;;;9.97;;
74833;SDS011;63361;52.384;20.930;2023-12-20T03:47:12;20.80;;;9.10;;
74833;SDS011;63361;52.384;20.930;2023-12-20T03:49:37;19.40;;;9.50;;
74833;SDS011;63361;52.384;20.930;2023-12-20T03:52:03;20.13;;;9.80;;
74833;SDS011;63361;52.384;20.930;2023-12-20T03:54:29;18.00;;;9.18;;
74833;SDS011;63361;52.384;20.930;2023-12-20T03:56:54;17.60;;;8.57;;
74833;SDS011;63361;52.384;20.930;2023-12-20T03:59:20;18.60;;;8.83;;
74833;SDS011;63361;52.384;20.930;2023-12-20T04:01:45;22.10;;;9.47;;
74833;SDS011;63361;52.384;20.930;2023-12-20T04:04:10;18.90;;;9.13;;
74833;SDS011;63361;52.384;20.930;2023-12-20T04:06:36;18.63;;;8.52;;
74833;SDS011;63361;52.384;20.930;2023-12-20T04:09:03;18.83;;;8.57;;
74833;SDS011;63361;52.384;20.930;2023-12-20T04:11:28;15.93;;;8.07;;
74833;SDS011;63361;52.384;20.930;2023-12-20T04:13:53;16.17;;;7.93;;
74833;SDS011;63361;52.384;20.930;2023-12-20T04:16:19;16.80;;;8.30;;
74833;SDS011;63361;52.384;20.930;2023-12-20T04:18:44;17.80;;;8.23;;
74833;SDS011;63361;52.384;20.930;2023-12-20T04:21:10;22.20;;;8.77;;
74833;SDS011;63361;52.384;20.930;2023-12-20T04:23:35;25.50;;;8.73;;
74833;SDS011;63361;52.384;20.930;2023-12-20T04:26:00;24.67;;;9.17;;
74833;SDS011;63361;52.384;20.930;2023-12-20T04:28:26;25.60;;;8.80;;
74833;SDS011;63361;52.384;20.930;2023-12-20T04:30:51;18.33;;;9.00;;
74833;SDS011;63361;52.384;20.930;2023-12-20T04:33:16;16.57;;;8.70;;
74833;SDS011;63361;52.384;20.930;2023-12-20T04:35:42;17.50;;;8.77;;
74833;SDS011;63361;52.384;20.930;2023-12-20T04:38:08;19.40;;;8.85;;
74833;SDS011;63361;52.384;20.930;2023-12-20T04:40:34;18.27;;;8.63;;
74833;SDS011;63361;52.384;20.930;2023-12-20T04:42:59;15.67;;;7.30;;
74833;SDS011;63361;52.384;20.930;2023-12-20T04:45:24;16.80;;;7.67;;
74833;SDS011;63361;52.384;20.930;2023-12-20T04:47:50;16.80;;;8.03;;
74833;SDS011;63361;52.384;20.930;2023-12-20T04:50:15;16.60;;;7.88;;
74833;SDS011;63361;52.384;20.930;2023-12-20T04:52:41;17.27;;;7.57;;
74833;SDS011;63361;52.384;20.930;2023-12-20T04:55:07;16.83;;;7.72;;
74833;SDS011;63361;52.384;20.930;2023-12-20T04:57:33;15.98;;;6.88;;
74833;SDS011;63361;52.384;20.930;2023-12-20T04:59:59;14.57;;;6.97;;
74833;SDS011;63361;52.384;20.930;2023-12-20T05:02:24;16.17;;;7.67;;
74833;SDS011;63361;52.384;20.930;2023-12-20T05:04:50;19.20;;;8.03;;
74833;SDS011;63361;52.384;20.930;2023-12-20T05:07:15;18.30;;;8.32;;
74833;SDS011;63361;52.384;20.930;2023-12-20T05:09:40;19.47;;;8.07;;
74833;SDS011;63361;52.384;20.930;2023-12-20T05:12:06;16.77;;;8.40;;
74833;SDS011;63361;52.384;20.930;2023-12-20T05:14:32;17.08;;;8.50;;
74833;SDS011;63361;52.384;20.930;2023-12-20T05:16:57;20.07;;;8.60;;
74833;SDS011;63361;52.384;20.930;2023-12-20T05:19:23;20.88;;;8.90;;
74833;SDS011;63361;52.384;20.930;2023-12-20T05:21:49;16.60;;;7.97;;
74833;SDS011;63361;52.384;20.930;2023-12-20T05:24:14;18.50;;;8.68;;
74833;SDS011;63361;52.384;20.930;2023-12-20T05:26:40;18.27;;;8.40;;
74833;SDS011;63361;52.384;20.930;2023-12-20T05:29:05;25.93;;;9.13;;
74833;SDS011;63361;52.384;20.930;2023-12-20T05:31:31;23.90;;;10.00;;
74833;SDS011;63361;52.384;20.930;2023-12-20T05:33:56;16.38;;;7.90;;
74833;SDS011;63361;52.384;20.930;2023-12-20T05:36:22;21.70;;;10.90;;
74833;SDS011;63361;52.384;20.930;2023-12-20T05:38:47;18.60;;;9.40;;
74833;SDS011;63361;52.384;20.930;2023-12-20T05:41:12;21.47;;;9.37;;
74833;SDS011;63361;52.384;20.930;2023-12-20T05:43:38;19.55;;;9.38;;
74833;SDS011;63361;52.384;20.930;2023-12-20T05:46:04;20.55;;;9.23;;
74833;SDS011;63361;52.384;20.930;2023-12-20T05:48:29;19.00;;;8.47;;
74833;SDS011;63361;52.384;20.930;2023-12-20T05:50:55;18.13;;;8.90;;
74833;SDS011;63361;52.384;20.930;2023-12-20T05:53:20;18.90;;;8.97;;
74833;SDS011;63361;52.384;20.930;2023-12-20T05:55:45;21.50;;;9.10;;
74833;SDS011;63361;52.384;20.930;2023-12-20T05:58:11;19.33;;;8.53;;
74833;SDS011;63361;52.384;20.930;2023-12-20T06:00:36;24.45;;;8.10;;
74833;SDS011;63361;52.384;20.930;2023-12-20T06:03:01;15.50;;;8.07;;
74833;SDS011;63361;52.384;20.930;2023-12-20T06:05:27;19.27;;;8.43;;
74833;SDS011;63361;52.384;20.930;2023-12-20T06:07:52;30.47;;;9.77;;
74833;SDS011;63361;52.384;20.930;2023-12-20T06:10:19;19.13;;;8.77;;
74833;SDS011;63361;52.384;20.930;2023-12-20T06:12:45;20.10;;;9.37;;
74833;SDS011;63361;52.384;20.930;2023-12-20T06:15:12;24.38;;;9.50;;
74833;SDS011;63361;52.384;20.930;2023-12-20T06:17:37;21.57;;;9.10;;
74833;SDS011;63361;52.384;20.930;2023-12-20T06:20:02;23.77;;;9.97;;
74833;SDS011;63361;52.384;20.930;2023-12-20T06:22:32;27.02;;;10.13;;
74833;SDS011;63361;52.384;20.930;2023-12-20T06:24:58;24.00;;;10.00;;
74833;SDS011;63361;52.384;20.930;2023-12-20T06:27:23;19.50;;;8.93;;
74833;SDS011;63361;52.384;20.930;2023-12-20T06:29:48;22.17;;;9.33;;
74833;SDS011;63361;52.384;20.930;2023-12-20T06:32:14;20.97;;;9.87;;
74833;SDS011;63361;52.384;20.930;2023-12-20T06:34:39;20.00;;;9.63;;
74833;SDS011;63361;52.384;20.930;2023-12-20T06:37:04;18.47;;;8.97;;
74833;SDS011;63361;52.384;20.930;2023-12-20T06:39:30;21.77;;;10.73;;
74833;SDS011;63361;52.384;20.930;2023-12-20T06:41:55;21.80;;;11.50;;
74833;SDS011;63361;52.384;20.930;2023-12-20T06:44:21;24.20;;;12.17;;
74833;SDS011;63361;52.384;20.930;2023-12-20T06:46:46;17.50;;;9.27;;
74833;SDS011;63361;52.384;20.930;2023-12-20T06:49:11;26.40;;;14.43;;
74833;SDS011;63361;52.384;20.930;2023-12-20T06:51:38;20.08;;;11.07;;
74833;SDS011;63361;52.384;20.930;2023-12-20T06:54:04;23.00;;;11.63;;
74833;SDS011;63361;52.384;20.930;2023-12-20T06:56:29;21.60;;;10.20;;
74833;SDS011;63361;52.384;20.930;2023-12-20T06:58:54;24.60;;;13.00;;
74833;SDS011;63361;52.384;20.930;2023-12-20T07:01:20;21.05;;;10.85;;
74833;SDS011;63361;52.384;20.930;2023-12-20T07:03:45;22.80;;;11.20;;
74833;SDS011;63361;52.384;20.930;2023-12-20T07:06:10;23.03;;;12.37;;
74833;SDS011;63361;52.384;20.930;2023-12-20T07:08:36;23.07;;;10.83;;
74833;SDS011;63361;52.384;20.930;2023-12-20T07:11:01;23.23;;;12.10;;
74833;SDS011;63361;52.384;20.930;2023-12-20T07:13:27;22.97;;;11.73;;
74833;SDS011;63361;52.384;20.930;2023-12-20T07:15:52;22.90;;;12.63;;
74833;SDS011;63361;52.384;20.930;2023-12-20T07:18:17;21.73;;;11.93;;
74833;SDS011;63361;52.384;20.930;2023-12-20T07:20:43;22.80;;;12.23;;
74833;SDS011;63361;52.384;20.930;2023-12-20T07:23:08;21.17;;;10.67;;
74833;SDS011;63361;52.384;20.930;2023-12-20T07:25:33;29.00;;;15.17;;
74833;SDS011;63361;52.384;20.930;2023-12-20T07:27:59;25.90;;;14.17;;
74833;SDS011;63361;52.384;20.930;2023-12-20T07:30:24;30.67;;;17.13;;
74833;SDS011;63361;52.384;20.930;2023-12-20T07:32:49;26.60;;;14.47;;
74833;SDS011;63361;52.384;20.930;2023-12-20T07:35:15;22.77;;;12.17;;
74833;SDS011;63361;52.384;20.930;2023-12-20T07:37:41;22.98;;;12.30;;
74833;SDS011;63361;52.384;20.930;2023-12-20T07:40:06;27.47;;;12.67;;
74833;SDS011;63361;52.384;20.930;2023-12-20T07:42:32;23.67;;;11.20;;
74833;SDS011;63361;52.384;20.930;2023-12-20T07:44:58;26.20;;;13.50;;
74833;SDS011;63361;52.384;20.930;2023-12-20T07:47:23;33.70;;;17.30;;
74833;SDS011;63361;52.384;20.930;2023-12-20T07:49:50;25.17;;;13.93;;
74833;SDS011;63361;52.384;20.930;2023-12-20T07:52:17;24.10;;;13.00;;
74833;SDS011;63361;52.384;20.930;2023-12-20T07:54:43;24.20;;;12.07;;
74833;SDS011;63361;52.384;20.930;2023-12-20T07:57:09;25.77;;;14.70;;
74833;SDS011;63361;52.384;20.930;2023-12-20T07:59:35;24.38;;;12.85;;
74833;SDS011;63361;52.384;20.930;2023-12-20T08:02:01;23.60;;;11.63;;
74833;SDS011;63361;52.384;20.930;2023-12-20T08:04:26;21.13;;;11.47;;
74833;SDS011;63361;52.384;20.930;2023-12-20T08:06:52;21.83;;;11.63;;
74833;SDS011;63361;52.384;20.930;2023-12-20T08:09:18;14.13;;;7.90;;
74833;SDS011;63361;52.384;20.930;2023-12-20T08:11:45;21.38;;;10.38;;
74833;SDS011;63361;52.384;20.930;2023-12-20T08:14:11;18.17;;;9.20;;
74833;SDS011;63361;52.384;20.930;2023-12-20T08:16:36;22.67;;;10.53;;
74833;SDS011;63361;52.384;20.930;2023-12-20T08:19:01;20.43;;;10.40;;
74833;SDS011;63361;52.384;20.930;2023-12-20T08:21:27;18.77;;;10.17;;
74833;SDS011;63361;52.384;20.930;2023-12-20T08:23:52;18.52;;;9.23;;
74833;SDS011;63361;52.384;20.930;2023-12-20T08:26:21;19.30;;;9.60;;
74833;SDS011;63361;52.384;20.930;2023-12-20T08:28:48;19.10;;;10.05;;
74833;SDS011;63361;52.384;20.930;2023-12-20T08:31:17;20.80;;;11.87;;
74833;SDS011;63361;52.384;20.930;2023-12-20T08:33:46;19.95;;;10.65;;
74833;SDS011;63361;52.384;20.930;2023-12-20T08:36:13;16.48;;;9.60;;
74833;SDS011;63361;52.384;20.930;2023-12-20T08:38:38;14.97;;;7.17;;
74833;SDS011;63361;52.384;20.930;2023-12-20T08:41:04;15.95;;;9.05;;
74833;SDS011;63361;52.384;20.930;2023-12-20T08:43:30;18.08;;;9.00;;
74833;SDS011;63361;52.384;20.930;2023-12-20T08:45:56;14.00;;;7.30;;
74833;SDS011;63361;52.384;20.930;2023-12-20T08:48:22;15.98;;;8.05;;
74833;SDS011;63361;52.384;20.930;2023-12-20T08:50:47;15.50;;;8.67;;
74833;SDS011;63361;52.384;20.930;2023-12-20T08:53:14;15.82;;;8.32;;
74833;SDS011;63361;52.384;20.930;2023-12-20T08:55:41;13.70;;;7.43;;
74833;SDS011;63361;52.384;20.930;2023-12-20T08:58:06;12.97;;;7.60;;
74833;SDS011;63361;52.384;20.930;2023-12-20T09:00:33;14.10;;;7.28;;
74833;SDS011;63361;52.384;20.930;2023-12-20T09:02:58;13.67;;;6.63;;
74833;SDS011;63361;52.384;20.930;2023-12-20T09:05:24;19.65;;;7.35;;
74833;SDS011;63361;52.384;20.930;2023-12-20T09:07:50;15.97;;;7.57;;
74833;SDS011;63361;52.384;20.930;2023-12-20T09:10:15;22.47;;;8.43;;
74833;SDS011;63361;52.384;20.930;2023-12-20T09:12:40;13.60;;;6.37;;
74833;SDS011;63361;52.384;20.930;2023-12-20T09:15:07;18.67;;;6.72;;
74833;SDS011;63361;52.384;20.930;2023-12-20T09:17:33;15.38;;;7.07;;
74833;SDS011;63361;52.384;20.930;2023-12-20T09:19:58;13.37;;;8.17;;
74833;SDS011;63361;52.384;20.930;2023-12-20T09:22:25;13.77;;;9.07;;
74833;SDS011;63361;52.384;20.930;2023-12-20T09:24:50;10.70;;;5.80;;
74833;SDS011;63361;52.384;20.930;2023-12-20T09:27:16;12.27;;;7.07;;
74833;SDS011;63361;52.384;20.930;2023-12-20T09:29:41;10.50;;;5.80;;
74833;SDS011;63361;52.384;20.930;2023-12-20T09:32:06;11.83;;;6.57;;
74833;SDS011;63361;52.384;20.930;2023-12-20T09:34:32;15.77;;;9.05;;
74833;SDS011;63361;52.384;20.930;2023-12-20T09:36:58;14.17;;;6.83;;
74833;SDS011;63361;52.384;20.930;2023-12-20T09:39:23;12.47;;;7.77;;
74833;SDS011;63361;52.384;20.930;2023-12-20T09:42:07;14.63;;;7.60;;
74833;SDS011;63361;52.384;20.930;2023-12-20T09:44:32;13.60;;;7.57;;
74833;SDS011;63361;52.384;20.930;2023-12-20T09:46:59;14.68;;;8.90;;
74833;SDS011;63361;52.384;20.930;2023-12-20T09:49:27;14.85;;;8.40;;
74833;SDS011;63361;52.384;20.930;2023-12-20T09:51:53;14.90;;;8.67;;
74833;SDS011;63361;52.384;20.930;2023-12-20T09:54:20;19.30;;;10.82;;
74833;SDS011;63361;52.384;20.930;2023-12-20T09:56:46;15.63;;;8.38;;
74833;SDS011;63361;52.384;20.930;2023-12-20T09:59:12;16.23;;;8.53;;
74833;SDS011;63361;52.384;20.930;2023-12-20T10:01:41;14.85;;;8.45;;
74833;SDS011;63361;52.384;20.930;2023-12-20T10:04:08;16.70;;;9.10;;
74833;SDS011;63361;52.384;20.930;2023-12-20T10:06:40;11.80;;;6.00;;
74833;SDS011;63361;52.384;20.930;2023-12-20T10:09:06;9.70;;;5.20;;
74833;SDS011;63361;52.384;20.930;2023-12-20T10:11:32;11.35;;;6.07;;
74833;SDS011;63361;52.384;20.930;2023-12-20T10:14:00;14.00;;;6.83;;
74833;SDS011;63361;52.384;20.930;2023-12-20T10:16:26;15.60;;;7.53;;
74833;SDS011;63361;52.384;20.930;2023-12-20T10:18:55;13.03;;;7.70;;
74833;SDS011;63361;52.384;20.930;2023-12-20T10:21:22;15.52;;;7.97;;
74833;SDS011;63361;52.384;20.930;2023-12-20T10:23:48;13.02;;;7.07;;
74833;SDS011;63361;52.384;20.930;2023-12-20T10:26:27;12.32;;;7.38;;
74833;SDS011;63361;52.384;20.930;2023-12-20T10:28:54;12.88;;;6.32;;
74833;SDS011;63361;52.384;20.930;2023-12-20T10:31:28;13.57;;;7.00;;
74833;SDS011;63361;52.384;20.930;2023-12-20T10:33:56;14.00;;;6.75;;
74833;SDS011;63361;52.384;20.930;2023-12-20T10:36:23;13.52;;;5.90;;
74833;SDS011;63361;52.384;20.930;2023-12-20T10:38:49;12.85;;;7.10;;
74833;SDS011;63361;52.384;20.930;2023-12-20T10:41:17;14.10;;;7.10;;
74833;SDS011;63361;52.384;20.930;2023-12-20T10:43:50;16.90;;;8.13;;
74833;SDS011;63361;52.384;20.930;2023-12-20T10:46:19;16.95;;;7.15;;
74833;SDS011;63361;52.384;20.930;2023-12-20T10:48:45;15.33;;;7.77;;
74833;SDS011;63361;52.384;20.930;2023-12-20T10:51:11;16.50;;;6.75;;
74833;SDS011;63361;52.384;20.930;2023-12-20T10:53:41;12.77;;;6.88;;
74833;SDS011;63361;52.384;20.930;2023-12-20T10:56:07;16.95;;;8.05;;
74833;SDS011;63361;52.384;20.930;2023-12-20T10:58:34;13.90;;;7.72;;
74833;SDS011;63361;52.384;20.930;2023-12-20T11:01:03;13.67;;;7.10;;
74833;SDS011;63361;52.384;20.930;2023-12-20T11:03:32;14.18;;;7.93;;
74833;SDS011;63361;52.384;20.930;2023-12-20T11:08:48;11.65;;;6.43;;
74833;SDS011;63361;52.384;20.930;2023-12-20T11:17:08;15.07;;;7.68;;
74833;SDS011;63361;52.384;20.930;2023-12-20T11:20:20;13.27;;;6.65;;
74833;SDS011;63361;52.384;20.930;2023-12-20T11:22:20;14.05;;;7.15;;
74833;SDS011;63361;52.384;20.930;2023-12-20T11:24:46;14.43;;;7.50;;
74833;SDS011;63361;52.384;20.930;2023-12-20T11:27:13;12.47;;;6.27;;
74833;SDS011;63361;52.384;20.930;2023-12-20T11:29:38;13.77;;;6.88;;
74833;SDS011;63361;52.384;20.930;2023-12-20T11:32:49;14.40;;;7.80;;
74833;SDS011;63361;52.384;20.930;2023-12-20T11:34:50;13.35;;;6.93;;
74833;SDS011;63361;52.384;20.930;2023-12-20T11:37:16;14.67;;;7.13;;
74833;SDS011;63361;52.384;20.930;2023-12-20T11:39:44;12.73;;;6.97;;
74833;SDS011;63361;52.384;20.930;2023-12-20T11:42:10;12.67;;;7.13;;
74833;SDS011;63361;52.384;20.930;2023-12-20T11:44:36;14.75;;;7.97;;
74833;SDS011;63361;52.384;20.930;2023-12-20T11:47:02;14.87;;;8.27;;
74833;SDS011;63361;52.384;20.930;2023-12-20T11:49:28;16.42;;;8.75;;
74833;SDS011;63361;52.384;20.930;2023-12-20T11:51:55;18.95;;;8.85;;
74833;SDS011;63361;52.384;20.930;2023-12-20T11:54:21;21.13;;;9.25;;
74833;SDS011;63361;52.384;20.930;2023-12-20T11:56:47;20.77;;;9.60;;
74833;SDS011;63361;52.384;20.930;2023-12-20T11:59:13;26.38;;;11.00;;
74833;SDS011;63361;52.384;20.930;2023-12-20T12:01:38;16.23;;;8.50;;
74833;SDS011;63361;52.384;20.930;2023-12-20T12:04:07;16.83;;;7.77;;
74833;SDS011;63361;52.384;20.930;2023-12-20T12:06:32;18.98;;;9.23;;
74833;SDS011;63361;52.384;20.930;2023-12-20T12:08:58;12.88;;;6.55;;
74833;SDS011;63361;52.384;20.930;2023-12-20T12:11:23;14.07;;;6.23;;
74833;SDS011;63361;52.384;20.930;2023-12-20T12:13:49;10.07;;;5.40;;
74833;SDS011;63361;52.384;20.930;2023-12-20T12:16:19;11.90;;;6.37;;
74833;SDS011;63361;52.384;20.930;2023-12-20T12:18:45;10.68;;;6.13;;
74833;SDS011;63361;52.384;20.930;2023-12-20T12:21:12;12.03;;;5.23;;
74833;SDS011;63361;52.384;20.930;2023-12-20T12:23:44;9.70;;;5.63;;
74833;SDS011;63361;52.384;20.930;2023-12-20T12:26:09;10.80;;;5.07;;
74833;SDS011;63361;52.384;20.930;2023-12-20T12:28:34;13.83;;;4.87;;
74833;SDS011;63361;52.384;20.930;2023-12-20T12:31:00;21.13;;;4.97;;
74833;SDS011;63361;52.384;20.930;2023-12-20T12:33:26;10.53;;;6.20;;
74833;SDS011;63361;52.384;20.930;2023-12-20T12:35:51;9.40;;;5.67;;
74833;SDS011;63361;52.384;20.930;2023-12-20T12:38:19;9.37;;;4.87;;
74833;SDS011;63361;52.384;20.930;2023-12-20T12:40:45;14.60;;;5.13;;
74833;SDS011;63361;52.384;20.930;2023-12-20T12:43:11;39.25;;;5.88;;
74833;SDS011;63361;52.384;20.930;2023-12-20T12:45:37;11.30;;;5.43;;
74833;SDS011;63361;52.384;20.930;2023-12-20T12:48:03;10.30;;;5.50;;
74833;SDS011;63361;52.384;20.930;2023-12-20T12:50:28;10.40;;;5.63;;
74833;SDS011;63361;52.384;20.930;2023-12-20T12:52:53;10.13;;;5.13;;
74833;SDS011;63361;52.384;20.930;2023-12-20T12:55:19;11.40;;;5.00;;
74833;SDS011;63361;52.384;20.930;2023-12-20T12:57:44;11.27;;;5.63;;
74833;SDS011;63361;52.384;20.930;2023-12-20T13:00:09;10.17;;;5.77;;
74833;SDS011;63361;52.384;20.930;2023-12-20T13:02:36;9.80;;;5.47;;
74833;SDS011;63361;52.384;20.930;2023-12-20T13:05:02;12.80;;;6.50;;
74833;SDS011;63361;52.384;20.930;2023-12-20T13:07:29;15.45;;;5.72;;
74833;SDS011;63361;52.384;20.930;2023-12-20T13:09:55;16.88;;;6.00;;
74833;SDS011;63361;52.384;20.930;2023-12-20T13:12:20;17.73;;;6.40;;
74833;SDS011;63361;52.384;20.930;2023-12-20T13:14:46;11.25;;;6.05;;
74833;SDS011;63361;52.384;20.930;2023-12-20T13:17:12;13.27;;;5.73;;
74833;SDS011;63361;52.384;20.930;2023-12-20T13:19:37;10.80;;;5.60;;
74833;SDS011;63361;52.384;20.930;2023-12-20T13:22:03;12.17;;;5.53;;
74833;SDS011;63361;52.384;20.930;2023-12-20T13:24:28;12.63;;;5.55;;
74833;SDS011;63361;52.384;20.930;2023-12-20T13:26:54;11.13;;;5.40;;
74833;SDS011;63361;52.384;20.930;2023-12-20T13:29:20;9.43;;;4.70;;
74833;SDS011;63361;52.384;20.930;2023-12-20T13:31:45;8.77;;;5.37;;
74833;SDS011;63361;52.384;20.930;2023-12-20T13:34:11;11.20;;;5.80;;
74833;SDS011;63361;52.384;20.930;2023-12-20T13:36:37;8.73;;;4.50;;
74833;SDS011;63361;52.384;20.930;2023-12-20T13:39:03;9.98;;;4.82;;
74833;SDS011;63361;52.384;20.930;2023-12-20T13:41:29;11.00;;;5.22;;
74833;SDS011;63361;52.384;20.930;2023-12-20T13:43:55;10.03;;;5.00;;
74833;SDS011;63361;52.384;20.930;2023-12-20T13:46:20;8.83;;;4.77;;
74833;SDS011;63361;52.384;20.930;2023-12-20T13:48:46;9.43;;;4.87;;
74833;SDS011;63361;52.384;20.930;2023-12-20T13:51:11;14.73;;;5.70;;
74833;SDS011;63361;52.384;20.930;2023-12-20T13:53:36;12.50;;;6.67;;
74833;SDS011;63361;52.384;20.930;2023-12-20T13:56:03;12.05;;;6.18;;
74833;SDS011;63361;52.384;20.930;2023-12-20T13:58:29;12.98;;;5.85;;
74833;SDS011;63361;52.384;20.930;2023-12-20T14:00:54;10.97;;;5.93;;
74833;SDS011;63361;52.384;20.930;2023-12-20T14:03:19;10.63;;;5.67;;
74833;SDS011;63361;52.384;20.930;2023-12-20T14:05:45;13.03;;;5.80;;
74833;SDS011;63361;52.384;20.930;2023-12-20T14:08:10;12.03;;;5.63;;
74833;SDS011;63361;52.384;20.930;2023-12-20T14:10:36;13.03;;;5.67;;
74833;SDS011;63361;52.384;20.930;2023-12-20T14:13:01;14.90;;;6.75;;
74833;SDS011;63361;52.384;20.930;2023-12-20T14:15:26;15.03;;;7.10;;
74833;SDS011;63361;52.384;20.930;2023-12-20T14:17:52;13.80;;;7.00;;
74833;SDS011;63361;52.384;20.930;2023-12-20T14:20:18;15.00;;;7.10;;